sensor_id;sensor_type;location;lat;lon;timestamp;pressure;altitude;pressure_sealevel;temperature;humidity
84255;BME280;74400;44.692;18.998;2024-02-26T00:01:43;99047.06;;;8.20;80.51
84255;BME280;74400;44.692;18.998;2024-02-26T00:04:09;99045.81;;;8.26;79.96
84255;BME280;74400;44.692;18.998;2024-02-26T00:06:35;99041.13;;;8.20;80.53
84255;BME280;74400;44.692;18.998;2024-02-26T00:09:03;99032.78;;;8.29;79.70
84255;BME280;74400;44.692;18.998;2024-02-26T00:11:31;99036.50;;;8.37;79.62
84255;BME280;74400;44.692;18.998;2024-02-26T00:13:56;99040.78;;;8.24;79.70
84255;BME280;74400;44.692;18.998;2024-02-26T00:16:23;99043.50;;;8.10;80.13
84255;BME280;74400;44.692;18.998;2024-02-26T00:18:49;99040.22;;;8.08;80.43
84255;BME280;74400;44.692;18.998;2024-02-26T00:21:15;99039.41;;;8.07;80.36
84255;BME280;74400;44.692;18.998;2024-02-26T00:23:40;99034.19;;;8.09;80.33
84255;BME280;74400;44.692;18.998;2024-02-26T00:26:06;99032.25;;;8.12;79.63
84255;BME280;74400;44.692;18.998;2024-02-26T00:28:33;99032.75;;;8.05;80.00
84255;BME280;74400;44.692;18.998;2024-02-26T00:30:59;99035.13;;;7.95;80.46
84255;BME280;74400;44.692;18.998;2024-02-26T00:33:24;99027.56;;;7.94;80.64
84255;BME280;74400;44.692;18.998;2024-02-26T00:35:50;99030.31;;;7.91;80.11
84255;BME280;74400;44.692;18.998;2024-02-26T00:38:16;99029.72;;;7.87;80.76
84255;BME280;74400;44.692;18.998;2024-02-26T00:40:41;99023.06;;;7.84;80.30
84255;BME280;74400;44.692;18.998;2024-02-26T00:43:07;99023.47;;;7.78;80.27
84255;BME280;74400;44.692;18.998;2024-02-26T00:45:33;99012.53;;;7.76;80.67
84255;BME280;74400;44.692;18.998;2024-02-26T00:47:59;99010.19;;;7.73;80.48
84255;BME280;74400;44.692;18.998;2024-02-26T00:50:27;99006.91;;;7.71;81.57
84255;BME280;74400;44.692;18.998;2024-02-26T00:52:52;99008.94;;;7.66;81.29
84255;BME280;74400;44.692;18.998;2024-02-26T00:55:18;99007.63;;;7.73;81.55
84255;BME280;74400;44.692;18.998;2024-02-26T00:57:44;99013.75;;;7.83;80.42
84255;BME280;74400;44.692;18.998;2024-02-26T01:00:10;99007.91;;;7.81;81.40
84255;BME280;74400;44.692;18.998;2024-02-26T01:02:35;99004.84;;;7.89;81.14
84255;BME280;74400;44.692;18.998;2024-02-26T01:05:01;98998.28;;;7.85;81.02
84255;BME280;74400;44.692;18.998;2024-02-26T01:07:28;98999.09;;;7.85;80.68
84255;BME280;74400;44.692;18.998;2024-02-26T01:09:53;98993.66;;;7.90;79.97
84255;BME280;74400;44.692;18.998;2024-02-26T01:12:19;98989.19;;;7.81;80.78
84255;BME280;74400;44.692;18.998;2024-02-26T01:14:45;98994.41;;;7.79;80.79
84255;BME280;74400;44.692;18.998;2024-02-26T01:17:10;98994.41;;;7.79;80.51
84255;BME280;74400;44.692;18.998;2024-02-26T01:19:36;98986.66;;;7.68;80.65
84255;BME280;74400;44.692;18.998;2024-02-26T01:22:02;98989.72;;;7.60;80.74
84255;BME280;74400;44.692;18.998;2024-02-26T01:24:29;98980.31;;;7.61;81.82
84255;BME280;74400;44.692;18.998;2024-02-26T01:26:54;98982.53;;;7.66;81.40
84255;BME280;74400;44.692;18.998;2024-02-26T01:29:20;98980.09;;;7.64;80.32
84255;BME280;74400;44.692;18.998;2024-02-26T01:31:46;98968.22;;;7.63;81.14
84255;BME280;74400;44.692;18.998;2024-02-26T01:34:11;98966.38;;;7.65;80.07
84255;BME280;74400;44.692;18.998;2024-02-26T01:36:37;98963.75;;;7.54;81.17
84255;BME280;74400;44.692;18.998;2024-02-26T01:39:03;98976.22;;;7.46;81.24
84255;BME280;74400;44.692;18.998;2024-02-26T01:41:29;98975.41;;;7.45;81.66
84255;BME280;74400;44.692;18.998;2024-02-26T01:43:54;98973.78;;;7.31;81.00
84255;BME280;74400;44.692;18.998;2024-02-26T01:46:20;98969.47;;;7.19;81.58
84255;BME280;74400;44.692;18.998;2024-02-26T01:48:47;98965.69;;;7.12;82.02
84255;BME280;74400;44.692;18.998;2024-02-26T01:53:40;98958.66;;;7.28;82.32
84255;BME280;74400;44.692;18.998;2024-02-26T01:56:06;98958.22;;;7.35;81.70
84255;BME280;74400;44.692;18.998;2024-02-26T01:58:34;98972.66;;;7.36;81.07
84255;BME280;74400;44.692;18.998;2024-02-26T02:01:01;98970.41;;;7.31;81.11
84255;BME280;74400;44.692;18.998;2024-02-26T02:03:28;98967.22;;;7.27;80.24
84255;BME280;74400;44.692;18.998;2024-02-26T02:05:55;98962.94;;;7.15;81.00
84255;BME280;74400;44.692;18.998;2024-02-26T02:08:21;98973.16;;;7.15;80.29
84255;BME280;74400;44.692;18.998;2024-02-26T02:10:48;98980.44;;;7.09;81.28
84255;BME280;74400;44.692;18.998;2024-02-26T02:13:14;98972.84;;;7.07;81.40
84255;BME280;74400;44.692;18.998;2024-02-26T02:15:40;98975.50;;;7.18;81.83
84255;BME280;74400;44.692;18.998;2024-02-26T02:18:06;98976.63;;;7.14;80.38
84255;BME280;74400;44.692;18.998;2024-02-26T02:20:33;98971.19;;;7.06;80.53
84255;BME280;74400;44.692;18.998;2024-02-26T02:22:59;98963.66;;;7.17;80.88
84255;BME280;74400;44.692;18.998;2024-02-26T02:25:25;98957.31;;;7.23;80.71
84255;BME280;74400;44.692;18.998;2024-02-26T02:27:51;98972.53;;;7.24;80.52
84255;BME280;74400;44.692;18.998;2024-02-26T02:30:20;98974.06;;;7.27;80.61
84255;BME280;74400;44.692;18.998;2024-02-26T02:32:46;98968.94;;;7.40;80.59
84255;BME280;74400;44.692;18.998;2024-02-26T02:35:12;98963.84;;;7.40;79.54
84255;BME280;74400;44.692;18.998;2024-02-26T02:37:37;98960.66;;;7.49;79.41
84255;BME280;74400;44.692;18.998;2024-02-26T02:40:03;98963.00;;;7.52;78.79
84255;BME280;74400;44.692;18.998;2024-02-26T02:42:30;98965.56;;;7.52;79.91
84255;BME280;74400;44.692;18.998;2024-02-26T02:44:56;98965.25;;;7.56;79.68
84255;BME280;74400;44.692;18.998;2024-02-26T02:47:22;98963.00;;;7.65;79.32
84255;BME280;74400;44.692;18.998;2024-02-26T02:49:47;98963.31;;;7.60;79.17
84255;BME280;74400;44.692;18.998;2024-02-26T02:52:13;98969.84;;;7.64;79.23
84255;BME280;74400;44.692;18.998;2024-02-26T02:54:40;98979.91;;;7.67;79.83
84255;BME280;74400;44.692;18.998;2024-02-26T02:57:10;98969.75;;;7.66;79.04
84255;BME280;74400;44.692;18.998;2024-02-26T02:59:37;98968.22;;;7.63;78.28
84255;BME280;74400;44.692;18.998;2024-02-26T03:02:02;98961.25;;;7.65;78.89
84255;BME280;74400;44.692;18.998;2024-02-26T03:04:28;98959.63;;;7.64;78.95
84255;BME280;74400;44.692;18.998;2024-02-26T03:06:54;98961.59;;;7.60;78.71
84255;BME280;74400;44.692;18.998;2024-02-26T03:09:20;98958.69;;;7.65;79.11
84255;BME280;74400;44.692;18.998;2024-02-26T03:11:46;98959.63;;;7.64;79.62
84255;BME280;74400;44.692;18.998;2024-02-26T03:14:12;98956.13;;;7.65;79.43
84255;BME280;74400;44.692;18.998;2024-02-26T03:16:37;98958.59;;;7.67;79.26
84255;BME280;74400;44.692;18.998;2024-02-26T03:19:03;98958.59;;;7.67;79.09
84255;BME280;74400;44.692;18.998;2024-02-26T03:21:29;98940.78;;;7.65;79.46
84255;BME280;74400;44.692;18.998;2024-02-26T03:23:54;98946.41;;;7.70;78.35
84255;BME280;74400;44.692;18.998;2024-02-26T03:26:20;98946.91;;;7.75;79.23
84255;BME280;74400;44.692;18.998;2024-02-26T03:28:47;98948.16;;;7.70;79.40
84255;BME280;74400;44.692;18.998;2024-02-26T03:31:13;98945.78;;;7.79;79.13
84255;BME280;74400;44.692;18.998;2024-02-26T03:33:38;98946.09;;;7.75;78.21
84255;BME280;74400;44.692;18.998;2024-02-26T03:36:04;98937.50;;;7.76;78.72
84255;BME280;74400;44.692;18.998;2024-02-26T03:38:30;98937.09;;;7.69;79.14
84255;BME280;74400;44.692;18.998;2024-02-26T03:40:56;98933.09;;;7.65;78.71
84255;BME280;74400;44.692;18.998;2024-02-26T03:43:22;98937.63;;;7.62;79.40
84255;BME280;74400;44.692;18.998;2024-02-26T03:45:48;98928.78;;;7.66;79.02
84255;BME280;74400;44.692;18.998;2024-02-26T03:50:39;98928.06;;;7.76;79.15
84255;BME280;74400;44.692;18.998;2024-02-26T03:53:04;98939.03;;;7.66;78.26
84255;BME280;74400;44.692;18.998;2024-02-26T03:55:30;98929.31;;;7.58;79.04
84255;BME280;74400;44.692;18.998;2024-02-26T03:57:56;98931.38;;;7.53;79.33
84255;BME280;74400;44.692;18.998;2024-02-26T04:00:22;98935.50;;;7.43;79.35
84255;BME280;74400;44.692;18.998;2024-02-26T04:02:47;98926.69;;;7.34;80.70
84255;BME280;74400;44.692;18.998;2024-02-26T04:07:40;98930.97;;;7.46;79.57
84255;BME280;74400;44.692;18.998;2024-02-26T04:10:10;98926.28;;;7.40;80.23
84255;BME280;74400;44.692;18.998;2024-02-26T04:12:41;98931.31;;;7.42;79.19
84255;BME280;74400;44.692;18.998;2024-02-26T04:15:10;98925.28;;;7.43;80.40
84255;BME280;74400;44.692;18.998;2024-02-26T04:17:36;98925.69;;;7.37;79.21
84255;BME280;74400;44.692;18.998;2024-02-26T04:20:03;98926.38;;;7.39;80.00
84255;BME280;74400;44.692;18.998;2024-02-26T04:22:30;98923.53;;;7.30;79.69
84255;BME280;74400;44.692;18.998;2024-02-26T04:24:57;98927.03;;;7.29;79.73
84255;BME280;74400;44.692;18.998;2024-02-26T04:27:23;98927.75;;;7.19;79.99
84255;BME280;74400;44.692;18.998;2024-02-26T04:29:48;98931.63;;;7.24;79.99
84255;BME280;74400;44.692;18.998;2024-02-26T04:32:14;98928.84;;;7.27;79.64
84255;BME280;74400;44.692;18.998;2024-02-26T04:34:40;98928.34;;;7.35;79.75
84255;BME280;74400;44.692;18.998;2024-02-26T04:37:07;98933.78;;;7.30;79.69
84255;BME280;74400;44.692;18.998;2024-02-26T04:39:33;98932.13;;;7.29;80.16
84255;BME280;74400;44.692;18.998;2024-02-26T04:41:58;98932.72;;;7.33;79.64
84255;BME280;74400;44.692;18.998;2024-02-26T04:44:24;98933.34;;;7.37;80.45
84255;BME280;74400;44.692;18.998;2024-02-26T04:46:50;98926.47;;;7.50;80.12
84255;BME280;74400;44.692;18.998;2024-02-26T04:49:15;98934.97;;;7.63;79.06
84255;BME280;74400;44.692;18.998;2024-02-26T04:51:41;98924.94;;;7.60;78.54
84255;BME280;74400;44.692;18.998;2024-02-26T04:54:07;98922.81;;;7.54;79.14
84255;BME280;74400;44.692;18.998;2024-02-26T04:56:32;98921.78;;;7.44;79.02
84255;BME280;74400;44.692;18.998;2024-02-26T04:58:58;98914.28;;;7.53;79.96
84255;BME280;74400;44.692;18.998;2024-02-26T05:01:24;98921.94;;;7.66;78.74
84255;BME280;74400;44.692;18.998;2024-02-26T05:03:49;98922.31;;;7.73;77.91
84255;BME280;74400;44.692;18.998;2024-02-26T05:06:15;98923.59;;;7.67;78.28
84255;BME280;74400;44.692;18.998;2024-02-26T05:08:41;98913.16;;;7.57;78.61
84255;BME280;74400;44.692;18.998;2024-02-26T05:11:06;98921.16;;;7.53;79.57
84255;BME280;74400;44.692;18.998;2024-02-26T05:13:32;98921.09;;;7.42;79.19
84255;BME280;74400;44.692;18.998;2024-02-26T05:15:58;98927.72;;;7.31;79.59
84255;BME280;74400;44.692;18.998;2024-02-26T05:18:23;98920.28;;;7.28;79.97
84255;BME280;74400;44.692;18.998;2024-02-26T05:20:49;98922.81;;;7.41;79.94
84255;BME280;74400;44.692;18.998;2024-02-26T05:23:15;98930.97;;;7.59;79.39
84255;BME280;74400;44.692;18.998;2024-02-26T05:25:40;98922.84;;;7.65;77.94
84255;BME280;74400;44.692;18.998;2024-02-26T05:28:07;98933.63;;;7.57;77.61
84255;BME280;74400;44.692;18.998;2024-02-26T05:30:32;98932.16;;;7.66;78.45
84255;BME280;74400;44.692;18.998;2024-02-26T05:32:58;98935.66;;;7.65;77.95
84255;BME280;74400;44.692;18.998;2024-02-26T05:35:26;98939.56;;;7.58;78.55
84255;BME280;74400;44.692;18.998;2024-02-26T05:37:52;98932.63;;;7.60;78.32
84255;BME280;74400;44.692;18.998;2024-02-26T05:40:19;98933.84;;;7.54;78.08
84255;BME280;74400;44.692;18.998;2024-02-26T05:42:44;98937.00;;;7.58;78.15
84255;BME280;74400;44.692;18.998;2024-02-26T05:45:10;98941.00;;;7.62;77.83
84255;BME280;74400;44.692;18.998;2024-02-26T05:47:36;98950.81;;;7.68;78.26
84255;BME280;74400;44.692;18.998;2024-02-26T05:52:43;98945.59;;;7.70;77.63
84255;BME280;74400;44.692;18.998;2024-02-26T05:55:09;98948.53;;;7.76;78.53
84255;BME280;74400;44.692;18.998;2024-02-26T05:57:36;98943.81;;;7.83;77.92
84255;BME280;74400;44.692;18.998;2024-02-26T06:00:05;98945.44;;;7.84;77.58
84255;BME280;74400;44.692;18.998;2024-02-26T06:03:10;98950.00;;;7.68;78.31
84255;BME280;74400;44.692;18.998;2024-02-26T06:05:43;98950.81;;;7.68;78.69
84255;BME280;74400;44.692;18.998;2024-02-26T06:08:13;98952.44;;;7.69;77.77
84255;BME280;74400;44.692;18.998;2024-02-26T06:10:53;98959.72;;;7.75;77.61
84255;BME280;74400;44.692;18.998;2024-02-26T06:13:21;98957.16;;;7.75;77.62
84255;BME280;74400;44.692;18.998;2024-02-26T06:15:55;98966.53;;;7.87;77.61
84255;BME280;74400;44.692;18.998;2024-02-26T06:18:24;98961.84;;;7.81;78.26
84255;BME280;74400;44.692;18.998;2024-02-26T06:20:49;98965.00;;;7.85;76.65
84255;BME280;74400;44.692;18.998;2024-02-26T06:23:15;98968.06;;;7.90;77.28
84255;BME280;74400;44.692;18.998;2024-02-26T06:25:41;98967.31;;;8.01;77.15
84255;BME280;74400;44.692;18.998;2024-02-26T06:28:08;98973.84;;;8.05;76.54
84255;BME280;74400;44.692;18.998;2024-02-26T06:30:34;98972.44;;;8.01;77.20
84255;BME280;74400;44.692;18.998;2024-02-26T06:33:00;98968.78;;;8.16;77.19
84255;BME280;74400;44.692;18.998;2024-02-26T06:35:26;98976.31;;;8.30;75.79
84255;BME280;74400;44.692;18.998;2024-02-26T06:37:52;98975.59;;;8.41;75.88
84255;BME280;74400;44.692;18.998;2024-02-26T06:40:19;98977.97;;;8.55;75.27
84255;BME280;74400;44.692;18.998;2024-02-26T06:42:45;98987.53;;;8.53;74.85
84255;BME280;74400;44.692;18.998;2024-02-26T06:45:10;98986.03;;;8.51;75.27
84255;BME280;74400;44.692;18.998;2024-02-26T06:47:37;98977.72;;;8.71;74.67
84255;BME280;74400;44.692;18.998;2024-02-26T06:50:03;98979.41;;;8.94;73.56
84255;BME280;74400;44.692;18.998;2024-02-26T06:52:29;98972.31;;;8.98;73.14
84255;BME280;74400;44.692;18.998;2024-02-26T06:59:11;98975.50;;;9.58;71.22
84255;BME280;74400;44.692;18.998;2024-02-26T07:01:39;98986.00;;;9.77;69.80
84255;BME280;74400;44.692;18.998;2024-02-26T07:04:05;98988.84;;;9.74;70.29
84255;BME280;74400;44.692;18.998;2024-02-26T07:06:31;98988.25;;;9.93;69.70
84255;BME280;74400;44.692;18.998;2024-02-26T07:08:56;98992.09;;;9.98;70.01
84255;BME280;74400;44.692;18.998;2024-02-26T07:11:22;98991.84;;;10.01;69.26
84255;BME280;74400;44.692;18.998;2024-02-26T07:13:48;99001.66;;;9.85;70.74
84255;BME280;74400;44.692;18.998;2024-02-26T07:16:15;99001.66;;;9.85;70.18
84255;BME280;74400;44.692;18.998;2024-02-26T07:18:41;98999.53;;;9.90;70.11
84255;BME280;74400;44.692;18.998;2024-02-26T07:21:06;98995.00;;;9.94;69.65
84255;BME280;74400;44.692;18.998;2024-02-26T07:23:32;98996.59;;;10.28;68.85
84255;BME280;74400;44.692;18.998;2024-02-26T07:25:57;98999.28;;;10.38;68.41
84255;BME280;74400;44.692;18.998;2024-02-26T07:28:24;98998.31;;;10.50;67.76
84255;BME280;74400;44.692;18.998;2024-02-26T07:30:50;99000.13;;;10.60;67.82
84255;BME280;74400;44.692;18.998;2024-02-26T07:33:15;98998.16;;;10.52;68.18
84255;BME280;74400;44.692;18.998;2024-02-26T07:35:41;99001.63;;;10.62;67.85
84255;BME280;74400;44.692;18.998;2024-02-26T07:45:22;98992.38;;;11.12;66.33
84255;BME280;74400;44.692;18.998;2024-02-26T07:47:48;98997.06;;;11.49;65.23
84255;BME280;74400;44.692;18.998;2024-02-26T07:52:40;98993.47;;;11.61;65.00
84255;BME280;74400;44.692;18.998;2024-02-26T07:55:06;99000.44;;;11.80;63.76
84255;BME280;74400;44.692;18.998;2024-02-26T07:57:32;99010.03;;;11.99;63.46
84255;BME280;74400;44.692;18.998;2024-02-26T08:00:04;99005.88;;;12.17;62.92
84255;BME280;74400;44.692;18.998;2024-02-26T08:02:35;99002.50;;;12.36;61.80
84255;BME280;74400;44.692;18.998;2024-02-26T08:05:00;98996.81;;;12.62;61.62
84255;BME280;74400;44.692;18.998;2024-02-26T08:07:26;98999.81;;;12.77;61.38
84255;BME280;74400;44.692;18.998;2024-02-26T08:13:11;99000.59;;;13.25;61.18
84255;BME280;74400;44.692;18.998;2024-02-26T08:15:37;99009.19;;;13.63;59.96
84255;BME280;74400;44.692;18.998;2024-02-26T08:18:03;99014.31;;;14.28;57.80
84255;BME280;74400;44.692;18.998;2024-02-26T08:20:30;99008.50;;;13.98;58.28
84255;BME280;74400;44.692;18.998;2024-02-26T08:22:56;99006.44;;;14.02;59.10
84255;BME280;74400;44.692;18.998;2024-02-26T08:25:23;99015.16;;;13.64;60.16
84255;BME280;74400;44.692;18.998;2024-02-26T08:28:21;99008.22;;;12.98;61.86
84255;BME280;74400;44.692;18.998;2024-02-26T08:30:46;99002.41;;;12.77;63.45
84255;BME280;74400;44.692;18.998;2024-02-26T08:35:43;99007.03;;;12.83;63.47
84255;BME280;74400;44.692;18.998;2024-02-26T08:38:10;99003.38;;;12.76;64.45
84255;BME280;74400;44.692;18.998;2024-02-26T08:40:36;99000.22;;;12.72;64.08
84255;BME280;74400;44.692;18.998;2024-02-26T08:43:02;99007.03;;;12.83;63.55
84255;BME280;74400;44.692;18.998;2024-02-26T08:45:28;99008.78;;;12.92;63.97
84255;BME280;74400;44.692;18.998;2024-02-26T08:51:19;99011.22;;;12.84;64.15
84255;BME280;74400;44.692;18.998;2024-02-26T08:53:45;99007.41;;;12.78;65.26
84255;BME280;74400;44.692;18.998;2024-02-26T08:56:15;99010.16;;;12.77;65.40
84255;BME280;74400;44.692;18.998;2024-02-26T08:58:42;99008.88;;;13.00;65.31
84255;BME280;74400;44.692;18.998;2024-02-26T09:01:09;99007.53;;;13.15;64.34
84255;BME280;74400;44.692;18.998;2024-02-26T09:03:34;99002.81;;;13.20;64.57
84255;BME280;74400;44.692;18.998;2024-02-26T09:06:00;99007.66;;;13.23;64.72
84255;BME280;74400;44.692;18.998;2024-02-26T09:08:26;99000.03;;;13.32;64.27
84255;BME280;74400;44.692;18.998;2024-02-26T09:10:51;98998.34;;;13.60;64.10
84255;BME280;74400;44.692;18.998;2024-02-26T09:13:17;99003.00;;;14.11;60.61
84255;BME280;74400;44.692;18.998;2024-02-26T09:15:44;98994.06;;;14.69;57.70
84255;BME280;74400;44.692;18.998;2024-02-26T09:18:10;98994.59;;;15.24;55.68
84255;BME280;74400;44.692;18.998;2024-02-26T09:20:35;99005.97;;;15.57;56.24
84255;BME280;74400;44.692;18.998;2024-02-26T09:23:01;98997.56;;;15.89;55.30
84255;BME280;74400;44.692;18.998;2024-02-26T09:25:28;98997.44;;;15.99;56.54
84255;BME280;74400;44.692;18.998;2024-02-26T09:27:53;98991.19;;;15.50;57.26
84255;BME280;74400;44.692;18.998;2024-02-26T09:30:19;98994.59;;;15.50;57.84
84255;BME280;74400;44.692;18.998;2024-02-26T09:32:48;98993.44;;;16.29;55.48
84255;BME280;74400;44.692;18.998;2024-02-26T09:41:20;98995.50;;;17.09;56.21
84255;BME280;74400;44.692;18.998;2024-02-26T09:43:48;98987.72;;;17.00;55.59
84255;BME280;74400;44.692;18.998;2024-02-26T09:46:17;98985.09;;;17.09;55.02
84255;BME280;74400;44.692;18.998;2024-02-26T09:48:47;98989.66;;;16.98;55.51
84255;BME280;74400;44.692;18.998;2024-02-26T09:54:50;98986.91;;;17.64;53.85
84255;BME280;74400;44.692;18.998;2024-02-26T09:57:16;98982.94;;;17.92;53.23
84255;BME280;74400;44.692;18.998;2024-02-26T09:59:43;98983.06;;;17.99;53.20
84255;BME280;74400;44.692;18.998;2024-02-26T10:02:12;98979.66;;;17.90;53.98
84255;BME280;74400;44.692;18.998;2024-02-26T10:04:40;98976.53;;;17.72;54.79
84255;BME280;74400;44.692;18.998;2024-02-26T10:07:11;98980.69;;;17.81;54.15
84255;BME280;74400;44.692;18.998;2024-02-26T10:09:38;98975.81;;;17.70;54.05
84255;BME280;74400;44.692;18.998;2024-02-26T10:12:04;98975.00;;;17.22;55.28
84255;BME280;74400;44.692;18.998;2024-02-26T10:15:02;98969.00;;;17.05;56.63
84255;BME280;74400;44.692;18.998;2024-02-26T10:17:28;98970.47;;;16.59;58.15
84255;BME280;74400;44.692;18.998;2024-02-26T10:19:55;98968.16;;;16.23;57.99
84255;BME280;74400;44.692;18.998;2024-02-26T10:22:35;98961.97;;;16.16;58.17
84255;BME280;74400;44.692;18.998;2024-02-26T10:25:05;98968.22;;;16.56;58.18
84255;BME280;74400;44.692;18.998;2024-02-26T10:27:31;98960.09;;;16.91;57.23
84255;BME280;74400;44.692;18.998;2024-02-26T10:29:57;98963.66;;;17.06;56.65
84255;BME280;74400;44.692;18.998;2024-02-26T10:32:23;98965.13;;;16.60;57.47
84255;BME280;74400;44.692;18.998;2024-02-26T10:34:55;98967.09;;;16.91;56.49
84255;BME280;74400;44.692;18.998;2024-02-26T10:37:22;98959.44;;;17.05;56.70
84255;BME280;74400;44.692;18.998;2024-02-26T10:39:48;98945.47;;;17.15;55.86
84255;BME280;74400;44.692;18.998;2024-02-26T10:42:15;98956.16;;;17.28;54.41
84255;BME280;74400;44.692;18.998;2024-02-26T10:44:43;98949.47;;;17.25;56.48
84255;BME280;74400;44.692;18.998;2024-02-26T10:47:10;98949.63;;;17.32;56.64
84255;BME280;74400;44.692;18.998;2024-02-26T10:49:36;98947.69;;;17.34;55.58
84255;BME280;74400;44.692;18.998;2024-02-26T10:55:33;98932.84;;;17.51;54.96
84255;BME280;74400;44.692;18.998;2024-02-26T10:58:01;98926.81;;;17.50;53.06
84255;BME280;74400;44.692;18.998;2024-02-26T11:00:28;98927.78;;;17.57;54.44
84255;BME280;74400;44.692;18.998;2024-02-26T11:02:57;98928.56;;;17.74;54.22
84255;BME280;74400;44.692;18.998;2024-02-26T11:05:27;98922.19;;;17.77;52.43
84255;BME280;74400;44.692;18.998;2024-02-26T11:07:55;98920.69;;;17.82;52.01
84255;BME280;74400;44.692;18.998;2024-02-26T11:10:22;98919.56;;;18.08;51.82
84255;BME280;74400;44.692;18.998;2024-02-26T11:12:49;98917.41;;;18.20;51.42
84255;BME280;74400;44.692;18.998;2024-02-26T11:15:16;98925.03;;;18.44;50.28
84255;BME280;74400;44.692;18.998;2024-02-26T11:17:44;98926.03;;;18.43;49.08
84255;BME280;74400;44.692;18.998;2024-02-26T11:20:11;98920.47;;;18.23;49.06
84255;BME280;74400;44.692;18.998;2024-02-26T11:22:38;98920.38;;;18.08;50.00
84255;BME280;74400;44.692;18.998;2024-02-26T11:25:04;98921.03;;;18.10;50.51
84255;BME280;74400;44.692;18.998;2024-02-26T11:27:37;98912.06;;;18.13;49.62
84255;BME280;74400;44.692;18.998;2024-02-26T11:30:05;98916.59;;;18.19;49.96
84255;BME280;74400;44.692;18.998;2024-02-26T11:32:34;98915.19;;;18.08;51.00
84255;BME280;74400;44.692;18.998;2024-02-26T11:35:00;98909.97;;;18.08;50.53
84255;BME280;74400;44.692;18.998;2024-02-26T11:37:26;98912.06;;;18.13;50.27
84255;BME280;74400;44.692;18.998;2024-02-26T11:39:52;98904.63;;;18.10;48.85
84255;BME280;74400;44.692;18.998;2024-02-26T11:42:23;98911.59;;;18.09;47.89
84255;BME280;74400;44.692;18.998;2024-02-26T11:44:50;98899.00;;;17.98;47.77
84255;BME280;74400;44.692;18.998;2024-02-26T11:47:22;98897.72;;;17.94;48.67
84255;BME280;74400;44.692;18.998;2024-02-26T11:49:48;98898.34;;;17.96;47.70
84255;BME280;74400;44.692;18.998;2024-02-26T11:52:21;98892.00;;;17.99;47.84
84255;BME280;74400;44.692;18.998;2024-02-26T11:54:51;98887.78;;;17.98;47.77
84255;BME280;74400;44.692;18.998;2024-02-26T11:57:30;98882.72;;;18.04;47.35
84255;BME280;74400;44.692;18.998;2024-02-26T12:02:40;98881.44;;;18.23;46.46
84255;BME280;74400;44.692;18.998;2024-02-26T12:07:46;98880.47;;;18.39;45.39
84255;BME280;74400;44.692;18.998;2024-02-26T12:12:41;98871.91;;;18.53;45.75
84255;BME280;74400;44.692;18.998;2024-02-26T12:15:08;98879.81;;;18.60;44.52
84255;BME280;74400;44.692;18.998;2024-02-26T12:17:34;98880.47;;;18.62;45.97
84255;BME280;74400;44.692;18.998;2024-02-26T12:20:10;98872.59;;;18.47;47.27
84255;BME280;74400;44.692;18.998;2024-02-26T12:22:39;98865.97;;;18.59;46.65
84255;BME280;74400;44.692;18.998;2024-02-26T12:25:08;98873.28;;;18.64;46.63
84255;BME280;74400;44.692;18.998;2024-02-26T12:27:34;98877.66;;;18.63;47.49
84255;BME280;74400;44.692;18.998;2024-02-26T12:30:01;98879.66;;;18.61;47.67
84255;BME280;74400;44.692;18.998;2024-02-26T12:32:28;98881.75;;;18.43;46.41
84255;BME280;74400;44.692;18.998;2024-02-26T12:34:54;98877.69;;;18.40;48.05
84255;BME280;74400;44.692;18.998;2024-02-26T12:37:20;98871.69;;;18.40;48.15
84255;BME280;74400;44.692;18.998;2024-02-26T12:39:46;98878.69;;;18.39;48.51
84255;BME280;74400;44.692;18.998;2024-02-26T12:42:12;98873.66;;;18.38;49.16
84255;BME280;74400;44.692;18.998;2024-02-26T12:48:08;98875.75;;;18.20;48.47
84255;BME280;74400;44.692;18.998;2024-02-26T12:50:34;98876.75;;;18.19;49.11
84255;BME280;74400;44.692;18.998;2024-02-26T12:53:01;98871.34;;;18.20;48.90
84255;BME280;74400;44.692;18.998;2024-02-26T12:55:35;98878.66;;;18.25;47.86
84255;BME280;74400;44.692;18.998;2024-02-26T12:58:02;98875.75;;;18.20;48.72
84255;BME280;74400;44.692;18.998;2024-02-26T13:00:29;98875.41;;;18.23;48.16
84255;BME280;74400;44.692;18.998;2024-02-26T13:02:55;98873.09;;;18.05;48.22
84255;BME280;74400;44.692;18.998;2024-02-26T13:05:22;98872.06;;;17.91;48.17
84255;BME280;74400;44.692;18.998;2024-02-26T13:07:48;98874.66;;;17.91;48.86
84255;BME280;74400;44.692;18.998;2024-02-26T13:10:15;98870.53;;;17.97;47.65
84255;BME280;74400;44.692;18.998;2024-02-26T13:12:47;98875.22;;;18.01;47.22
84255;BME280;74400;44.692;18.998;2024-02-26T13:21:20;98874.72;;;18.06;45.87
84255;BME280;74400;44.692;18.998;2024-02-26T13:23:52;98877.19;;;17.99;45.83
84255;BME280;74400;44.692;18.998;2024-02-26T13:26:22;98874.81;;;17.90;46.06
84255;BME280;74400;44.692;18.998;2024-02-26T13:29:01;98881.38;;;17.77;47.50
84255;BME280;74400;44.692;18.998;2024-02-26T13:31:29;98874.69;;;17.83;48.04
84255;BME280;74400;44.692;18.998;2024-02-26T13:33:56;98870.16;;;17.85;48.43
84255;BME280;74400;44.692;18.998;2024-02-26T13:36:22;98872.41;;;17.88;48.59
84255;BME280;74400;44.692;18.998;2024-02-26T13:42:11;98884.25;;;17.91;48.40
84255;BME280;74400;44.692;18.998;2024-02-26T13:44:40;98875.16;;;17.86;48.00
84255;BME280;74400;44.692;18.998;2024-02-26T13:47:07;98879.09;;;17.82;48.16
84255;BME280;74400;44.692;18.998;2024-02-26T13:49:34;98876.84;;;17.79;48.69
84255;BME280;74400;44.692;18.998;2024-02-26T13:52:03;98878.34;;;17.74;48.90
84255;BME280;74400;44.692;18.998;2024-02-26T13:54:30;98869.09;;;17.71;48.13
84255;BME280;74400;44.692;18.998;2024-02-26T13:56:56;98872.31;;;17.73;47.89
84255;BME280;74400;44.692;18.998;2024-02-26T13:59:22;98867.88;;;17.82;47.97
84255;BME280;74400;44.692;18.998;2024-02-26T14:01:50;98867.19;;;17.88;47.31